Latest Coastal Weather Observations for Cape Borda

IDT60701

Issued at 1:42 pm EST Tuesday 26 May 2020 (issued every 10 minutes, with the page automatically refreshed every 10 minutes)

About coastal observations | Map of coastal stations | Coastal observations for TAS | Marine services | Other Formats
Station Details ID: 022823 Name: CAPE BORDA Lat: -35.75 Lon: 136.60 Height: 158.0 m
Data from the previous 72 hours. | See also: Recent months at Cape Borda
Date/Time
EST
Wind Sea
Height
m
Swell Vis
km
Cloud Weather Temp
°C
Press
hPa
Rain since
9am
mm
Dir  Spd
kts
Gust
kts
Height
m
Period
s
Dir
26/01:30pm N 21 28 - - - - - - - 13.2 1013.7 0.0
26/01:00pm N 21 29 - - - - - - - 13.4 1014.4 0.0
26/12:33pm NNE 17 27 - - - - - - - 13.4 1014.8 0.0
26/12:30pm NNE 18 26 - - - - - - - 13.6 1014.5 0.0
26/12:00pm NNE 17 25 - - - - - - - 13.3 1015.5 0.0
26/11:30am N 21 28 - - - - - - - 13.7 1016.0 0.0
26/11:00am N 21 31 - - - - - - - 13.8 1016.4 0.0
26/10:30am N 22 29 - - - - - - - 14.0 1016.4 0.0
26/10:03am N 21 31 - - - - - - - 14.0 1016.7 0.0
26/10:00am N 23 31 - - - - - - - 13.8 1016.7 0.0
26/09:30am N 21 27 - - - - - - - 13.5 1016.8 0.0
26/09:01am NNE 19 29 - - - - - - - 13.5 1016.8 0.0
26/09:00am NNE 19 27 - - - - - - - 13.5 1016.9 0.0
26/08:30am NNE 18 23 - - - - - - - 12.4 1016.6 0.0
26/08:00am NNE 17 25 - - - - - - - 12.1 1016.8 0.0
26/07:30am NNE 19 26 - - - - - - - 11.9 1016.9 0.0
26/07:00am NNE 18 24 - - - - - - - 12.0 1016.8 0.0
26/06:30am NNE 19 25 - - - - - - - 11.9 1016.7 0.0
26/06:00am NNE 19 25 - - - - - - - 12.1 1016.9 0.0
26/05:30am NNE 19 26 - - - - - - - 12.1 1017.1 0.0
26/05:00am NNE 19 26 - - - - - - - 12.0 1017.1 0.0
26/04:30am NNE 18 25 - - - - - - - 12.0 1017.2 0.0
26/04:00am NNE 17 24 - - - - - - - 12.1 1017.6 0.0
26/03:30am NNE 17 23 - - - - - - - 12.2 1017.9 0.0
26/03:00am NNE 16 22 - - - - - - - 12.0 1018.0 0.0
26/02:30am NNE 17 23 - - - - - - - 12.3 1018.1 0.0
26/02:00am NNE 18 23 - - - - - - - 12.2 1018.3 0.0
26/01:30am NNE 17 25 - - - - - - - 12.2 1018.5 0.0
26/01:00am NNE 16 23 - - - - - - - 12.1 1019.0 0.0
26/12:30am NNE 17 24 - - - - - - - 12.1 1019.0 0.0
26/12:00am NNE 17 22 - - - - - - - 11.9 1018.8 0.0
 
Date/Time
EST
Wind Sea
Height
m
Swell Vis
km
Cloud Weather Temp
°C
Press
hPa
Rain since
9am
mm
Dir  Spd
kts
Gust
kts
Height
m
Period
s
Dir
25/11:30pm NNE 18 23 - - - - - - - 12.0 1019.5 0.0
25/11:00pm NNE 17 22 - - - - - - - 11.8 1019.6 0.0
25/10:30pm NNE 18 23 - - - - - - - 11.9 1019.7 0.0
25/10:00pm NNE 19 25 - - - - - - - 11.7 1019.9 0.0
25/09:30pm NE 18 25 - - - - - - - 11.6 1019.6 0.0
25/09:00pm NE 19 26 - - - - - - - 11.5 1018.6 0.0
25/08:30pm NNE 19 27 - - - - - - - 11.1 1019.2 0.0
25/08:00pm NE 19 27 - - - - - - - 11.0 1018.7 0.0
25/07:33pm NE 20 30 - - - - - - - 10.9 1018.4 0.0
25/07:30pm NE 19 26 - - - - - - - 11.0 1018.5 0.0
25/07:25pm NE 20 30 - - - - - - - 11.0 1018.6 0.0
25/07:00pm NE 20 27 - - - - - - - 10.9 1018.9 0.0
25/06:30pm NE 19 28 - - - - - - - 11.1 1019.2 0.0
25/06:00pm NNE 18 25 - - - - - - - 11.1 1019.9 0.0
25/05:30pm NE 18 25 - - - - - - - 10.9 1019.9 0.0
25/05:00pm NNE 17 24 - - - - - - - 10.9 1020.1 0.0
25/04:30pm NE 19 25 - - - - - - - 11.0 1019.9 0.0
25/04:00pm NE 19 25 - - - - - - - 10.6 1020.1 0.0
25/03:30pm NE 19 26 - - - - - - - 10.7 1020.4 0.0
25/03:00pm NE 18 25 - - - - - - - 11.1 1020.6 0.0
25/02:30pm NE 14 20 - - - - - - - 11.5 1021.6 0.0
25/02:00pm NNE 14 20 - - - - - - - 11.7 1022.3 0.0
25/01:30pm NE 15 20 - - - - - - - 12.0 1022.0 0.0
25/01:00pm NE 16 23 - - - - - - - 12.0 1022.1 0.0
25/12:30pm NE 16 21 - - - - - - - 12.1 1022.3 0.0
25/12:00pm NE 13 18 - - - - - - - 11.9 1022.9 0.0
25/11:30am NE 10 14 - - - - - - - 11.6 1023.7 0.0
25/11:00am NE 9 13 - - - - - - - 11.1 1024.4 0.0
25/10:30am NE 9 11 - - - - - - - 10.8 1024.3 0.0
25/10:00am E 7 10 - - - - - - - 10.1 1024.5 0.0
25/09:30am E 7 9 - - - - - - - 9.8 1024.4 0.0
25/09:00am E 7 10 - - - - - - - 9.6 1024.3 0.0
25/08:30am E 9 12 - - - - - - - 9.2 1024.4 0.0
25/08:00am ESE 7 10 - - - - - - - 8.9 1024.6 0.0
25/07:30am ESE 8 9 - - - - - - - 8.6 1024.1 0.0
25/07:00am ESE 8 10 - - - - - - - 8.5 1023.9 0.0
25/06:30am E 9 13 - - - - - - - 8.4 1023.5 0.0
25/06:00am E 7 9 - - - - - - - 8.5 1023.5 0.0
25/05:30am E 7 9 - - - - - - - 8.2 1023.4 0.0
25/05:00am ESE 7 9 - - - - - - - 8.0 1023.8 0.0
25/04:30am E 6 7 - - - - - - - 7.5 1023.9 0.0
25/04:00am E 6 8 - - - - - - - 7.8 1024.0 0.0
25/03:30am E 8 10 - - - - - - - 7.9 1024.0 0.0
25/03:00am ESE 7 9 - - - - - - - 7.7 1024.4 0.0
25/02:30am ESE 8 10 - - - - - - - 7.8 1024.5 0.0
25/02:00am E 8 10 - - - - - - - 8.2 1024.5 0.0
25/01:30am E 10 13 - - - - - - - 8.6 1024.4 0.0
25/01:00am E 9 10 - - - - - - - 8.0 1024.5 0.0
25/12:30am E 8 11 - - - - - - - 7.9 1024.7 0.0
25/12:00am E 8 10 - - - - - - - 8.3 1025.3 0.0
 
Date/Time
EST
Wind Sea
Height
m
Swell Vis
km
Cloud Weather Temp
°C
Press
hPa
Rain since
9am
mm
Dir  Spd
kts
Gust
kts
Height
m
Period
s
Dir
24/11:30pm ENE 8 11 - - - - - - - 8.4 1025.6 0.0
24/11:00pm ESE 8 9 - - - - - - - 8.2 1026.0 0.0
24/10:30pm SE 10 13 - - - - - - - 8.5 1026.4 0.0
24/10:00pm SE 9 11 - - - - - - - 8.8 1026.8 0.0
24/09:30pm SE 7 9 - - - - - - - 9.2 1027.4 0.0
24/09:00pm SE 6 7 - - - - - - - 9.3 1027.0 0.0
24/08:30pm SE 5 7 - - - - - - - 10.2 1027.2 0.0
24/08:00pm SSE 6 7 - - - - - - - 10.4 1027.1 0.0
24/07:30pm SSE 10 12 - - - - - - - 10.5 1027.1 0.0
24/07:00pm S 9 12 - - - - - - - 10.9 1027.0 0.0
24/06:30pm SSE 8 11 - - - - - - - 11.0 1026.5 0.0
24/06:00pm SE 7 11 - - - - - - - 11.1 1026.1 0.0
24/05:30pm SE 11 15 - - - - - - - 11.4 1026.0 0.0
24/05:00pm SSE 11 16 - - - - - - - 11.7 1026.1 0.0
24/04:30pm SSE 13 18 - - - - - - - 11.9 1026.0 0.0
24/04:00pm SSE 12 17 - - - - - - - 12.5 1026.0 0.0
24/03:30pm S 10 15 - - - - - - - 13.1 1026.0 0.0
24/03:00pm SE 10 15 - - - - - - - 12.1 1026.0 0.0
24/02:30pm S 11 16 - - - - - - - 11.7 1026.2 0.0
24/02:00pm SSE 9 13 - - - - - - - 12.6 1026.2 0.0
24/01:30pm SSE 12 16 - - - - - - - 12.0 1026.5 0.0
24/01:00pm S 10 13 - - - - - - - 12.6 1026.9 0.0
24/12:30pm S 11 14 - - - - - - - 12.3 1027.5 0.0
24/12:00pm S 8 12 - - - - - - - 12.3 1028.0 0.0
24/11:30am S 10 14 - - - - - - - 11.9 1028.4 0.0
24/11:00am SSE 11 15 - - - - - - - 11.7 1028.6 0.0
24/10:30am S 11 15 - - - - - - - 11.8 1028.3 0.0
24/10:00am S 13 18 - - - - - - - 11.9 1028.0 0.0
24/09:30am S 9 14 - - - - - - - 11.7 1027.9 0.0
24/09:00am S 6 9 - - - - - - - 11.2 1027.7 0.0
24/08:30am SSE 7 10 - - - - - - - 11.1 1027.1 0.0
24/08:00am SSE 9 12 - - - - - - - 10.6 1026.6 0.0
24/07:30am S 11 17 - - - - - - - 10.6 1026.2 0.0
24/07:00am SSE 9 17 - - - - - - - 10.4 1025.8 0.0
24/06:30am SSE 8 13 - - - - - - - 10.4 1025.6 0.0
24/06:00am SSE 10 12 - - - - - - - 10.5 1025.7 0.0
24/05:30am S 9 12 - - - - - - - 10.3 1025.7 0.0
24/05:00am S 10 14 - - - - - - - 10.4 1025.8 0.0
24/04:30am SSE 11 14 - - - - - - - 10.4 1025.7 0.0
24/04:00am SSE 9 13 - - - - - - - 11.0 1025.8 0.0
24/03:30am S 8 12 - - - - - - - 11.4 1025.9 0.0
24/03:00am SSE 10 14 - - - - - - - 11.2 1026.0 0.0
24/02:30am SSE 11 19 - - - - - - - 11.3 1026.1 0.0
24/02:00am S 9 12 - - - - - - - 11.2 1026.1 0.0
24/01:30am SSE 10 14 - - - - - - - 11.2 1026.0 0.0
24/01:00am S 9 14 - - - - - - - 11.1 1025.9 0.0
24/12:30am S 10 16 - - - - - - - 11.2 1025.7 0.0
24/12:00am S 10 14 - - - - - - - 11.0 1025.7 0.0
 
Date/Time
EST
Wind Sea
Height
m
Swell Vis
km
Cloud Weather Temp
°C
Press
hPa
Rain since
9am
mm
Dir  Spd
kts
Gust
kts
Height
m
Period
s
Dir
23/11:30pm S 10 16 - - - - - - - 11.5 1025.7 0.0
23/11:00pm SSE 10 15 - - - - - - - 11.3 1025.6 0.0
23/10:30pm S 10 13 - - - - - - - 11.2 1025.5 0.0
23/10:00pm S 10 13 - - - - - - - 11.1 1025.6 0.0
23/09:30pm S 10 15 - - - - - - - 11.2 1025.4 0.0
23/09:00pm S 12 17 - - - - - - - 11.4 1025.3 0.0
23/08:30pm S 8 11 - - - - - - - 11.0 1025.2 0.0
23/08:00pm S 12 17 - - - - - - - 11.0 1025.0 0.0
23/07:30pm S 11 16 - - - - - - - 11.1 1024.9 0.0
23/07:00pm S 14 19 - - - - - - - 11.4 1024.5 0.0
23/06:30pm S 13 18 - - - - - - - 11.8 1024.1 0.0
23/06:00pm S 14 21 - - - - - - - 11.7 1023.8 0.0
23/05:30pm S 15 20 - - - - - - - 12.3 1023.7 0.0
23/05:00pm S 15 21 - - - - - - - 12.5 1023.6 0.0
23/04:30pm S 16 22 - - - - - - - 12.8 1023.7 0.0
23/04:00pm S 16 24 - - - - - - - 13.2 1023.6 0.0
23/03:30pm S 16 22 - - - - - - - 13.6 1023.5 0.0
23/03:00pm S 17 23 - - - - - - - 13.8 1023.4 0.0
23/02:30pm S 16 22 - - - - - - - 14.0 1023.5 0.0

Other formats

Comma delimited format used in spreadsheet applications
http://www.bom.gov.au/fwo/IDT60701/IDT60701.95805.axf

JavaScript Object Notation format (JSON) in row-major order
http://www.bom.gov.au/fwo/IDT60701/IDT60701.95805.json

Data quality

Most of these data are generated automatically and are frequently updated. Quality checks on data are not normally performed. It is possible for incorrect values to appear. Refer to information at About Latest Weather Observations and please check the disclaimer before using these data.